PWSweather.com
Personal Weather Stations
Station Observations
KTXROWLE6
Ravens Nest, Rowlett, TX 75089

Ravens NestRowlett, TX 75089

Lat: 32.93105, Lon: -96.57368

Elevation: 556

Station Type: Davis Vantage Pro2 6152

http://rowlett.ws

High Low Average
Temperature 93.5°F34.2°C 79.5°F26.4°C 85.0°F29.4°C
Dew Point 76.6°F24.8°C 71.5°F21.9°C 73.6°F23.1°C
Winds 4.6 mph 7.4 kmh Calm Calm 2.0 mph SSE3.2 kmh SSE
Wind Gusts 15.0 mph24.1 kmh -- 8.0 mph12.9 kmh
Humidity 82% 52% 69%
Pressure 29.90 in1012.5 mb 29.82 in1009.8 mb -
Precipitation 0.00 in0.0 mm - -
Hour Temp Dew Point Humidity Winds Wind Gusts Pressure Precip Precip Rate Daily Precip Total
12:00 AM 83.4°F28.6°C 71.3°F21.8°C 67% 2.1 mph SSE3.4 kmh SSE 8.0 mph12.9 kmh 29.86 in1011.2 mb 0.00 in0.0 mm 0.00 in0.0 mm 0.00 in0.0 mm
12:05 AM 83.2°F28.4°C 71.5°F21.9°C 68% 2.3 mph S3.7 kmh S 8.0 mph12.9 kmh 29.86 in1011.2 mb 0.00 in0.0 mm 0.00 in0.0 mm 0.00 in0.0 mm
12:10 AM 83.1°F28.4°C 71.4°F21.9°C 68% 1.7 mph SSE2.7 kmh SSE 6.0 mph9.7 kmh 29.86 in1011.2 mb 0.00 in0.0 mm 0.00 in0.0 mm 0.00 in0.0 mm
12:15 AM 83.0°F28.3°C 71.3°F21.8°C 68% 2.0 mph S3.2 kmh S 6.0 mph9.7 kmh 29.86 in1011.2 mb 0.00 in0.0 mm 0.00 in0.0 mm 0.00 in0.0 mm
12:20 AM 82.9°F28.3°C 71.2°F21.8°C 68% 1.7 mph S2.7 kmh S 6.0 mph9.7 kmh 29.86 in1011.2 mb 0.00 in0.0 mm 0.00 in0.0 mm 0.00 in0.0 mm
12:25 AM 82.9°F28.3°C 71.7°F22.1°C 69% 2.6 mph S4.2 kmh S 9.0 mph14.5 kmh 29.86 in1011.2 mb 0.00 in0.0 mm 0.00 in0.0 mm 0.00 in0.0 mm
12:30 AM 82.7°F28.2°C 71.5°F21.9°C 69% 1.5 mph S2.4 kmh S 9.0 mph14.5 kmh 29.85 in1010.8 mb 0.00 in0.0 mm 0.00 in0.0 mm 0.00 in0.0 mm
12:35 AM 82.6°F28.1°C 71.4°F21.9°C 69% 1.7 mph SSE2.7 kmh SSE 6.0 mph9.7 kmh 29.86 in1011.2 mb 0.00 in0.0 mm 0.00 in0.0 mm 0.00 in0.0 mm
12:40 AM 82.4°F28.0°C 71.6°F22.0°C 70% 2.0 mph S3.2 kmh S 6.0 mph9.7 kmh 29.86 in1011.2 mb 0.00 in0.0 mm 0.00 in0.0 mm 0.00 in0.0 mm
12:45 AM 82.3°F27.9°C 71.5°F21.9°C 70% 1.1 mph S1.8 kmh S 6.0 mph9.7 kmh 29.86 in1011.2 mb 0.00 in0.0 mm 0.00 in0.0 mm 0.00 in0.0 mm
12:50 AM 82.2°F27.9°C 71.4°F21.9°C 70% 1.7 mph S2.7 kmh S 5.0 mph8.0 kmh 29.86 in1011.2 mb 0.00 in0.0 mm 0.00 in0.0 mm 0.00 in0.0 mm
12:55 AM 82.1°F27.8°C 71.3°F21.8°C 70% 2.1 mph S3.4 kmh S 7.0 mph11.3 kmh 29.85 in1010.8 mb 0.00 in0.0 mm 0.00 in0.0 mm 0.00 in0.0 mm
01:00 AM 82.1°F27.8°C 71.7°F22.1°C 71% 2.2 mph S3.5 kmh S 7.0 mph11.3 kmh 29.85 in1010.8 mb 0.00 in0.0 mm 0.00 in0.0 mm 0.00 in0.0 mm
01:05 AM 82.0°F27.8°C 71.6°F22.0°C 71% 2.0 mph SSE3.2 kmh SSE 12.0 mph19.3 kmh 29.85 in1010.8 mb 0.00 in0.0 mm 0.00 in0.0 mm 0.00 in0.0 mm
01:10 AM 82.1°F27.8°C 71.7°F22.1°C 71% 2.9 mph SSE4.7 kmh SSE 12.0 mph19.3 kmh 29.85 in1010.8 mb 0.00 in0.0 mm 0.00 in0.0 mm 0.00 in0.0 mm
01:15 AM 82.0°F27.8°C 71.6°F22.0°C 71% 2.0 mph SSE3.2 kmh SSE 11.0 mph17.7 kmh 29.85 in1010.8 mb 0.00 in0.0 mm 0.00 in0.0 mm 0.00 in0.0 mm
01:20 AM 81.9°F27.7°C 71.5°F21.9°C 71% 3.5 mph S5.6 kmh S 11.0 mph17.7 kmh 29.85 in1010.8 mb 0.00 in0.0 mm 0.00 in0.0 mm 0.00 in0.0 mm
01:25 AM 82.0°F27.8°C 71.6°F22.0°C 71% 2.3 mph S3.7 kmh S 11.0 mph17.7 kmh 29.85 in1010.8 mb 0.00 in0.0 mm 0.00 in0.0 mm 0.00 in0.0 mm
01:30 AM 81.8°F27.7°C 71.9°F22.2°C 72% 2.2 mph S3.5 kmh S 9.0 mph14.5 kmh 29.85 in1010.8 mb 0.00 in0.0 mm 0.00 in0.0 mm 0.00 in0.0 mm
01:35 AM 81.8°F27.7°C 71.9°F22.2°C 72% 2.6 mph S4.2 kmh S 9.0 mph14.5 kmh 29.84 in1010.5 mb 0.00 in0.0 mm 0.00 in0.0 mm 0.00 in0.0 mm
01:40 AM 81.6°F27.6°C 71.7°F22.1°C 72% 2.0 mph SE3.2 kmh SE 7.0 mph11.3 kmh 29.84 in1010.5 mb 0.00 in0.0 mm 0.00 in0.0 mm 0.00 in0.0 mm
01:45 AM 81.4°F27.4°C 71.9°F22.2°C 73% 2.0 mph SE3.2 kmh SE 7.0 mph11.3 kmh 29.84 in1010.5 mb 0.00 in0.0 mm 0.00 in0.0 mm 0.00 in0.0 mm
01:50 AM 81.4°F27.4°C 71.9°F22.2°C 73% 2.7 mph S4.3 kmh S 8.0 mph12.9 kmh 29.84 in1010.5 mb 0.00 in0.0 mm 0.00 in0.0 mm 0.00 in0.0 mm
01:55 AM 81.3°F27.4°C 71.8°F22.1°C 73% 2.4 mph SSE3.9 kmh SSE 8.0 mph12.9 kmh 29.84 in1010.5 mb 0.00 in0.0 mm 0.00 in0.0 mm 0.00 in0.0 mm
02:00 AM 81.2°F27.3°C 71.7°F22.1°C 73% 1.9 mph S3.1 kmh S 6.0 mph9.7 kmh 29.84 in1010.5 mb 0.00 in0.0 mm 0.00 in0.0 mm 0.00 in0.0 mm
02:05 AM 81.1°F27.3°C 72.0°F22.2°C 74% 2.3 mph SSE3.7 kmh SSE 7.0 mph11.3 kmh 29.84 in1010.5 mb 0.00 in0.0 mm 0.00 in0.0 mm 0.00 in0.0 mm
02:10 AM 81.1°F27.3°C 72.0°F22.2°C 74% 2.4 mph S3.9 kmh S 9.0 mph14.5 kmh 29.84 in1010.5 mb 0.00 in0.0 mm 0.00 in0.0 mm 0.00 in0.0 mm
02:15 AM 80.9°F27.2°C 71.8°F22.1°C 74% 2.2 mph SSE3.5 kmh SSE 9.0 mph14.5 kmh 29.84 in1010.5 mb 0.00 in0.0 mm 0.00 in0.0 mm 0.00 in0.0 mm
02:20 AM 80.8°F27.1°C 71.7°F22.1°C 74% 1.7 mph S2.7 kmh S 8.0 mph12.9 kmh 29.84 in1010.5 mb 0.00 in0.0 mm 0.00 in0.0 mm 0.00 in0.0 mm
02:25 AM 80.8°F27.1°C 71.7°F22.1°C 74% 2.9 mph S4.7 kmh S 11.0 mph17.7 kmh 29.83 in1010.2 mb 0.00 in0.0 mm 0.00 in0.0 mm 0.00 in0.0 mm
02:30 AM 80.7°F27.1°C 72.0°F22.2°C 75% 2.5 mph SSE4.0 kmh SSE 11.0 mph17.7 kmh 29.83 in1010.2 mb 0.00 in0.0 mm 0.00 in0.0 mm 0.00 in0.0 mm
02:35 AM 80.7°F27.1°C 72.0°F22.2°C 75% 1.6 mph SSE2.6 kmh SSE 10.0 mph16.1 kmh 29.83 in1010.2 mb 0.00 in0.0 mm 0.00 in0.0 mm 0.00 in0.0 mm
02:40 AM 80.5°F26.9°C 71.8°F22.1°C 75% 1.6 mph SSE2.6 kmh SSE 4.0 mph6.4 kmh 29.83 in1010.2 mb 0.00 in0.0 mm 0.00 in0.0 mm 0.00 in0.0 mm
02:45 AM 80.3°F26.8°C 72.0°F22.2°C 76% 1.4 mph SE2.3 kmh SE 5.0 mph8.0 kmh 29.83 in1010.2 mb 0.00 in0.0 mm 0.00 in0.0 mm 0.00 in0.0 mm
02:50 AM 80.2°F26.8°C 71.9°F22.2°C 76% 1.8 mph S2.9 kmh S 5.0 mph8.0 kmh 29.83 in1010.2 mb 0.00 in0.0 mm 0.00 in0.0 mm 0.00 in0.0 mm
02:55 AM 80.2°F26.8°C 71.9°F22.2°C 76% 2.1 mph S3.4 kmh S 7.0 mph11.3 kmh 29.83 in1010.2 mb 0.00 in0.0 mm 0.00 in0.0 mm 0.00 in0.0 mm
03:00 AM 80.1°F26.7°C 71.8°F22.1°C 76% 2.0 mph SSE3.2 kmh SSE 7.0 mph11.3 kmh 29.83 in1010.2 mb 0.00 in0.0 mm 0.00 in0.0 mm 0.00 in0.0 mm
03:05 AM 80.2°F26.8°C 71.9°F22.2°C 76% 1.7 mph SSE2.7 kmh SSE 6.0 mph9.7 kmh 29.83 in1010.2 mb 0.00 in0.0 mm 0.00 in0.0 mm 0.00 in0.0 mm
03:10 AM 80.2°F26.8°C 72.3°F22.4°C 77% 2.8 mph SSE4.5 kmh SSE 9.0 mph14.5 kmh 29.83 in1010.2 mb 0.00 in0.0 mm 0.00 in0.0 mm 0.00 in0.0 mm
03:15 AM 80.1°F26.7°C 72.2°F22.3°C 77% 1.7 mph S2.7 kmh S 9.0 mph14.5 kmh 29.83 in1010.2 mb 0.00 in0.0 mm 0.00 in0.0 mm 0.00 in0.0 mm
03:20 AM 80.0°F26.7°C 72.1°F22.3°C 77% 2.1 mph SE3.4 kmh SE 7.0 mph11.3 kmh 29.83 in1010.2 mb 0.00 in0.0 mm 0.00 in0.0 mm 0.00 in0.0 mm
03:25 AM 80.0°F26.7°C 72.1°F22.3°C 77% 2.5 mph S4.0 kmh S 8.0 mph12.9 kmh 29.82 in1009.8 mb 0.00 in0.0 mm 0.00 in0.0 mm 0.00 in0.0 mm
03:30 AM 79.9°F26.6°C 72.0°F22.2°C 77% 1.6 mph SE2.6 kmh SE 8.0 mph12.9 kmh 29.82 in1009.8 mb 0.00 in0.0 mm 0.00 in0.0 mm 0.00 in0.0 mm
03:35 AM 79.7°F26.5°C 72.2°F22.3°C 78% 2.0 mph S3.2 kmh S 7.0 mph11.3 kmh 29.83 in1010.2 mb 0.00 in0.0 mm 0.00 in0.0 mm 0.00 in0.0 mm
03:40 AM 79.7°F26.5°C 72.2°F22.3°C 78% 1.2 mph SE1.9 kmh SE 7.0 mph11.3 kmh 29.82 in1009.8 mb 0.00 in0.0 mm 0.00 in0.0 mm 0.00 in0.0 mm
03:45 AM 79.7°F26.5°C 72.2°F22.3°C 78% 1.9 mph S3.1 kmh S 6.0 mph9.7 kmh 29.82 in1009.8 mb 0.00 in0.0 mm 0.00 in0.0 mm 0.00 in0.0 mm
03:50 AM 79.8°F26.6°C 72.3°F22.4°C 78% 1.7 mph SSE2.7 kmh SSE 6.0 mph9.7 kmh 29.83 in1010.2 mb 0.00 in0.0 mm 0.00 in0.0 mm 0.00 in0.0 mm
03:55 AM 79.8°F26.6°C 72.3°F22.4°C 78% 2.4 mph SSE3.9 kmh SSE 7.0 mph11.3 kmh 29.83 in1010.2 mb 0.00 in0.0 mm 0.00 in0.0 mm 0.00 in0.0 mm
04:00 AM 79.9°F26.6°C 72.4°F22.4°C 78% 1.5 mph S2.4 kmh S 7.0 mph11.3 kmh 29.83 in1010.2 mb 0.00 in0.0 mm 0.00 in0.0 mm 0.00 in0.0 mm
04:05 AM 79.9°F26.6°C 72.4°F22.4°C 78% 2.5 mph SSE4.0 kmh SSE 7.0 mph11.3 kmh 29.83 in1010.2 mb 0.00 in0.0 mm 0.00 in0.0 mm 0.00 in0.0 mm
04:10 AM 79.9°F26.6°C 72.4°F22.4°C 78% 1.7 mph S2.7 kmh S 7.0 mph11.3 kmh 29.82 in1009.8 mb 0.00 in0.0 mm 0.00 in0.0 mm 0.00 in0.0 mm
04:15 AM 79.9°F26.6°C 72.4°F22.4°C 78% 1.7 mph S2.7 kmh S 5.0 mph8.0 kmh 29.83 in1010.2 mb 0.00 in0.0 mm 0.00 in0.0 mm 0.00 in0.0 mm
04:20 AM 79.9°F26.6°C 72.8°F22.7°C 79% 2.1 mph S3.4 kmh S 7.0 mph11.3 kmh 29.83 in1010.2 mb 0.00 in0.0 mm 0.00 in0.0 mm 0.00 in0.0 mm
04:25 AM 79.9°F26.6°C 72.4°F22.4°C 78% 1.7 mph S2.7 kmh S 7.0 mph11.3 kmh 29.83 in1010.2 mb 0.00 in0.0 mm 0.00 in0.0 mm 0.00 in0.0 mm
04:30 AM 79.9°F26.6°C 72.8°F22.7°C 79% 2.3 mph SE3.7 kmh SE 9.0 mph14.5 kmh 29.83 in1010.2 mb 0.00 in0.0 mm 0.00 in0.0 mm 0.00 in0.0 mm
04:35 AM 79.8°F26.6°C 72.7°F22.6°C 79% 2.3 mph S3.7 kmh S 9.0 mph14.5 kmh 29.83 in1010.2 mb 0.00 in0.0 mm 0.00 in0.0 mm 0.00 in0.0 mm
04:40 AM 79.9°F26.6°C 72.8°F22.7°C 79% 1.4 mph SSE2.3 kmh SSE 8.0 mph12.9 kmh 29.83 in1010.2 mb 0.00 in0.0 mm 0.00 in0.0 mm 0.00 in0.0 mm
04:45 AM 79.9°F26.6°C 72.8°F22.7°C 79% 2.1 mph SSE3.4 kmh SSE 6.0 mph9.7 kmh 29.83 in1010.2 mb 0.00 in0.0 mm 0.00 in0.0 mm 0.00 in0.0 mm
04:50 AM 79.9°F26.6°C 72.8°F22.7°C 79% 2.1 mph SE3.4 kmh SE 6.0 mph9.7 kmh 29.84 in1010.5 mb 0.00 in0.0 mm 0.00 in0.0 mm 0.00 in0.0 mm
04:55 AM 79.9°F26.6°C 72.8°F22.7°C 79% 2.3 mph S3.7 kmh S 6.0 mph9.7 kmh 29.83 in1010.2 mb 0.00 in0.0 mm 0.00 in0.0 mm 0.00 in0.0 mm
05:00 AM 79.9°F26.6°C 72.8°F22.7°C 79% 1.2 mph SE1.9 kmh SE 6.0 mph9.7 kmh 29.83 in1010.2 mb 0.00 in0.0 mm 0.00 in0.0 mm 0.00 in0.0 mm
05:05 AM 79.9°F26.6°C 72.8°F22.7°C 79% 2.1 mph S3.4 kmh S 7.0 mph11.3 kmh 29.83 in1010.2 mb 0.00 in0.0 mm 0.00 in0.0 mm 0.00 in0.0 mm
05:10 AM 80.0°F26.7°C 72.9°F22.7°C 79% 1.5 mph S2.4 kmh S 7.0 mph11.3 kmh 29.83 in1010.2 mb 0.00 in0.0 mm 0.00 in0.0 mm 0.00 in0.0 mm
05:15 AM 80.0°F26.7°C 72.9°F22.7°C 79% 2.0 mph SSE3.2 kmh SSE 6.0 mph9.7 kmh 29.83 in1010.2 mb 0.00 in0.0 mm 0.00 in0.0 mm 0.00 in0.0 mm
05:20 AM 80.0°F26.7°C 72.9°F22.7°C 79% 2.4 mph SSE3.9 kmh SSE 8.0 mph12.9 kmh 29.84 in1010.5 mb 0.00 in0.0 mm 0.00 in0.0 mm 0.00 in0.0 mm
05:25 AM 80.0°F26.7°C 72.9°F22.7°C 79% 2.0 mph S3.2 kmh S 8.0 mph12.9 kmh 29.83 in1010.2 mb 0.00 in0.0 mm 0.00 in0.0 mm 0.00 in0.0 mm
05:30 AM 80.0°F26.7°C 73.3°F22.9°C 80% 2.2 mph SSE3.5 kmh SSE 8.0 mph12.9 kmh 29.83 in1010.2 mb 0.00 in0.0 mm 0.00 in0.0 mm 0.00 in0.0 mm
05:35 AM 80.0°F26.7°C 73.3°F22.9°C 80% 2.4 mph S3.9 kmh S 8.0 mph12.9 kmh 29.84 in1010.5 mb 0.00 in0.0 mm 0.00 in0.0 mm 0.00 in0.0 mm
05:40 AM 80.0°F26.7°C 73.3°F22.9°C 80% 1.4 mph SE2.3 kmh SE 7.0 mph11.3 kmh 29.84 in1010.5 mb 0.00 in0.0 mm 0.00 in0.0 mm 0.00 in0.0 mm
05:45 AM 80.1°F26.7°C 73.4°F23.0°C 80% 1.2 mph S1.9 kmh S 3.0 mph4.8 kmh 29.84 in1010.5 mb 0.00 in0.0 mm 0.00 in0.0 mm 0.00 in0.0 mm
05:50 AM 80.1°F26.7°C 73.4°F23.0°C 80% 1.6 mph S2.6 kmh S 6.0 mph9.7 kmh 29.84 in1010.5 mb 0.00 in0.0 mm 0.00 in0.0 mm 0.00 in0.0 mm
05:55 AM 80.0°F26.7°C 73.3°F22.9°C 80% 2.0 mph SE3.2 kmh SE 6.0 mph9.7 kmh 29.84 in1010.5 mb 0.00 in0.0 mm 0.00 in0.0 mm 0.00 in0.0 mm
06:00 AM 80.0°F26.7°C 73.3°F22.9°C 80% 1.9 mph SE3.1 kmh SE 5.0 mph8.0 kmh 29.84 in1010.5 mb 0.00 in0.0 mm 0.00 in0.0 mm 0.00 in0.0 mm
06:05 AM 79.9°F26.6°C 73.2°F22.9°C 80% 1.1 mph SSE1.8 kmh SSE 5.0 mph8.0 kmh 29.84 in1010.5 mb 0.00 in0.0 mm 0.00 in0.0 mm 0.00 in0.0 mm
06:10 AM 79.8°F26.6°C 73.1°F22.8°C 80% 1.8 mph SSE2.9 kmh SSE 7.0 mph11.3 kmh 29.84 in1010.5 mb 0.00 in0.0 mm 0.00 in0.0 mm 0.00 in0.0 mm
06:15 AM 79.7°F26.5°C 73.3°F22.9°C 81% 1.1 mph SE1.8 kmh SE 7.0 mph11.3 kmh 29.84 in1010.5 mb 0.00 in0.0 mm 0.00 in0.0 mm 0.00 in0.0 mm
06:20 AM 79.6°F26.4°C 73.2°F22.9°C 81% 1.9 mph SE3.1 kmh SE 5.0 mph8.0 kmh 29.84 in1010.5 mb 0.00 in0.0 mm 0.00 in0.0 mm 0.00 in0.0 mm
06:25 AM 79.5°F26.4°C 73.1°F22.8°C 81% 1.7 mph SSE2.7 kmh SSE 5.0 mph8.0 kmh 29.84 in1010.5 mb 0.00 in0.0 mm 0.00 in0.0 mm 0.00 in0.0 mm
06:30 AM 79.5°F26.4°C 73.5°F23.1°C 82% 1.3 mph SSE2.1 kmh SSE 5.0 mph8.0 kmh 29.84 in1010.5 mb 0.00 in0.0 mm 0.00 in0.0 mm 0.00 in0.0 mm
06:35 AM 79.5°F26.4°C 73.5°F23.1°C 82% 2.0 mph SE3.2 kmh SE 6.0 mph9.7 kmh 29.85 in1010.8 mb 0.00 in0.0 mm 0.00 in0.0 mm 0.00 in0.0 mm
06:40 AM 79.6°F26.4°C 73.6°F23.1°C 82% 2.2 mph SE3.5 kmh SE 7.0 mph11.3 kmh 29.85 in1010.8 mb 0.00 in0.0 mm 0.00 in0.0 mm 0.00 in0.0 mm
06:45 AM 79.7°F26.5°C 73.7°F23.2°C 82% 2.1 mph SSE3.4 kmh SSE 8.0 mph12.9 kmh 29.85 in1010.8 mb 0.00 in0.0 mm 0.00 in0.0 mm 0.00 in0.0 mm
06:50 AM 79.8°F26.6°C 73.8°F23.2°C 82% 1.4 mph SSE2.3 kmh SSE 8.0 mph12.9 kmh 29.85 in1010.8 mb 0.00 in0.0 mm 0.00 in0.0 mm 0.00 in0.0 mm
06:55 AM 79.9°F26.6°C 73.9°F23.3°C 82% Calm Calm 6.0 mph9.7 kmh 29.85 in1010.8 mb 0.00 in0.0 mm 0.00 in0.0 mm 0.00 in0.0 mm
07:00 AM 80.0°F26.7°C 74.0°F23.3°C 82% Calm Calm -- 29.85 in1010.8 mb 0.00 in0.0 mm 0.00 in0.0 mm 0.00 in0.0 mm
07:05 AM 80.1°F26.7°C 73.7°F23.2°C 81% Calm Calm -- 29.86 in1011.2 mb 0.00 in0.0 mm 0.00 in0.0 mm 0.00 in0.0 mm
07:10 AM 80.3°F26.8°C 73.9°F23.3°C 81% Calm Calm -- 29.86 in1011.2 mb 0.00 in0.0 mm 0.00 in0.0 mm 0.00 in0.0 mm
07:15 AM 80.4°F26.9°C 74.0°F23.3°C 81% 1.9 mph SE3.1 kmh SE 12.0 mph19.3 kmh 29.86 in1011.2 mb 0.00 in0.0 mm 0.00 in0.0 mm 0.00 in0.0 mm
07:20 AM 80.5°F26.9°C 74.1°F23.4°C 81% 2.4 mph SE3.9 kmh SE 12.0 mph19.3 kmh 29.86 in1011.2 mb 0.00 in0.0 mm 0.00 in0.0 mm 0.00 in0.0 mm
07:25 AM 80.5°F26.9°C 74.1°F23.4°C 81% 1.9 mph SE3.1 kmh SE 7.0 mph11.3 kmh 29.86 in1011.2 mb 0.00 in0.0 mm 0.00 in0.0 mm 0.00 in0.0 mm
07:30 AM 80.7°F27.1°C 74.3°F23.5°C 81% 1.4 mph SE2.3 kmh SE 7.0 mph11.3 kmh 29.86 in1011.2 mb 0.00 in0.0 mm 0.00 in0.0 mm 0.00 in0.0 mm
07:35 AM 80.6°F27.0°C 74.2°F23.4°C 81% 1.6 mph SSE2.6 kmh SSE 6.0 mph9.7 kmh 29.86 in1011.2 mb 0.00 in0.0 mm 0.00 in0.0 mm 0.00 in0.0 mm
07:40 AM 80.7°F27.1°C 74.3°F23.5°C 81% 3.1 mph SSE5.0 kmh SSE 8.0 mph12.9 kmh 29.86 in1011.2 mb 0.00 in0.0 mm 0.00 in0.0 mm 0.00 in0.0 mm
07:45 AM 80.8°F27.1°C 74.4°F23.6°C 81% 1.9 mph SSE3.1 kmh SSE 8.0 mph12.9 kmh 29.86 in1011.2 mb 0.00 in0.0 mm 0.00 in0.0 mm 0.00 in0.0 mm
07:50 AM 80.9°F27.2°C 74.1°F23.4°C 80% 2.4 mph SE3.9 kmh SE 11.0 mph17.7 kmh 29.86 in1011.2 mb 0.00 in0.0 mm 0.00 in0.0 mm 0.00 in0.0 mm
07:55 AM 80.9°F27.2°C 74.1°F23.4°C 80% 1.7 mph SE2.7 kmh SE 11.0 mph17.7 kmh 29.86 in1011.2 mb 0.00 in0.0 mm 0.00 in0.0 mm 0.00 in0.0 mm
08:00 AM 81.0°F27.2°C 74.2°F23.4°C 80% 2.4 mph SE3.9 kmh SE 12.0 mph19.3 kmh 29.86 in1011.2 mb 0.00 in0.0 mm 0.00 in0.0 mm 0.00 in0.0 mm
08:05 AM 81.0°F27.2°C 74.2°F23.4°C 80% 2.4 mph SE3.9 kmh SE 12.0 mph19.3 kmh 29.86 in1011.2 mb 0.00 in0.0 mm 0.00 in0.0 mm 0.00 in0.0 mm
08:10 AM 81.0°F27.2°C 74.2°F23.4°C 80% 2.6 mph SSE4.2 kmh SSE 10.0 mph16.1 kmh 29.86 in1011.2 mb 0.00 in0.0 mm 0.00 in0.0 mm 0.00 in0.0 mm
08:15 AM 81.1°F27.3°C 74.3°F23.5°C 80% 2.1 mph SE3.4 kmh SE 10.0 mph16.1 kmh 29.87 in1011.5 mb 0.00 in0.0 mm 0.00 in0.0 mm 0.00 in0.0 mm
08:20 AM 81.2°F27.3°C 74.4°F23.6°C 80% 1.7 mph SE2.7 kmh SE 10.0 mph16.1 kmh 29.86 in1011.2 mb 0.00 in0.0 mm 0.00 in0.0 mm 0.00 in0.0 mm
08:25 AM 81.4°F27.4°C 74.6°F23.7°C 80% 1.6 mph SE2.6 kmh SE 7.0 mph11.3 kmh 29.86 in1011.2 mb 0.00 in0.0 mm 0.00 in0.0 mm 0.00 in0.0 mm
08:30 AM 81.7°F27.6°C 74.9°F23.8°C 80% 1.5 mph S2.4 kmh S 4.0 mph6.4 kmh 29.86 in1011.2 mb 0.00 in0.0 mm 0.00 in0.0 mm 0.00 in0.0 mm
08:35 AM 81.9°F27.7°C 74.7°F23.7°C 79% 2.1 mph SE3.4 kmh SE 5.0 mph8.0 kmh 29.86 in1011.2 mb 0.00 in0.0 mm 0.00 in0.0 mm 0.00 in0.0 mm
08:40 AM 82.0°F27.8°C 74.8°F23.8°C 79% 1.9 mph SSE3.1 kmh SSE 5.0 mph8.0 kmh 29.86 in1011.2 mb 0.00 in0.0 mm 0.00 in0.0 mm 0.00 in0.0 mm
08:45 AM 82.1°F27.8°C 74.5°F23.6°C 78% 2.3 mph SE3.7 kmh SE 7.0 mph11.3 kmh 29.86 in1011.2 mb 0.00 in0.0 mm 0.00 in0.0 mm 0.00 in0.0 mm
08:50 AM 82.1°F27.8°C 74.9°F23.8°C 79% 2.9 mph SE4.7 kmh SE 10.0 mph16.1 kmh 29.86 in1011.2 mb 0.00 in0.0 mm 0.00 in0.0 mm 0.00 in0.0 mm
08:55 AM 82.1°F27.8°C 74.5°F23.6°C 78% 3.5 mph SE5.6 kmh SE 10.0 mph16.1 kmh 29.86 in1011.2 mb 0.00 in0.0 mm 0.00 in0.0 mm 0.00 in0.0 mm
09:00 AM 82.7°F28.2°C 75.5°F24.2°C 79% 1.6 mph SSE2.6 kmh SSE 9.0 mph14.5 kmh 29.86 in1011.2 mb 0.00 in0.0 mm 0.00 in0.0 mm 0.00 in0.0 mm
09:05 AM 84.0°F28.9°C 76.4°F24.7°C 78% 2.4 mph SE3.9 kmh SE 8.0 mph12.9 kmh 29.85 in1010.8 mb 0.00 in0.0 mm 0.00 in0.0 mm 0.00 in0.0 mm
09:10 AM 84.2°F29.0°C 75.4°F24.1°C 75% 3.3 mph SE5.3 kmh SE 15.0 mph24.1 kmh 29.85 in1010.8 mb 0.00 in0.0 mm 0.00 in0.0 mm 0.00 in0.0 mm
09:15 AM 84.7°F29.3°C 75.9°F24.4°C 75% 2.0 mph SE3.2 kmh SE 15.0 mph24.1 kmh 29.86 in1011.2 mb 0.00 in0.0 mm 0.00 in0.0 mm 0.00 in0.0 mm
09:20 AM 85.0°F29.4°C 76.2°F24.6°C 75% 3.2 mph SSE5.1 kmh SSE 9.0 mph14.5 kmh 29.86 in1011.2 mb 0.00 in0.0 mm 0.00 in0.0 mm 0.00 in0.0 mm
09:25 AM 85.7°F29.8°C 76.0°F24.4°C 73% 2.7 mph S4.3 kmh S 9.0 mph14.5 kmh 29.86 in1011.2 mb 0.00 in0.0 mm 0.00 in0.0 mm 0.00 in0.0 mm
09:30 AM 85.9°F29.9°C 75.8°F24.3°C 72% 3.5 mph SE5.6 kmh SE 10.0 mph16.1 kmh 29.86 in1011.2 mb 0.00 in0.0 mm 0.00 in0.0 mm 0.00 in0.0 mm
09:35 AM 86.7°F30.4°C 76.1°F24.5°C 71% 4.4 mph SE7.1 kmh SE 14.0 mph22.5 kmh 29.86 in1011.2 mb 0.00 in0.0 mm 0.00 in0.0 mm 0.00 in0.0 mm
09:40 AM 87.2°F30.7°C 76.2°F24.6°C 70% 4.4 mph SE7.1 kmh SE 14.0 mph22.5 kmh 29.86 in1011.2 mb 0.00 in0.0 mm 0.00 in0.0 mm 0.00 in0.0 mm
09:45 AM 87.3°F30.7°C 75.4°F24.1°C 68% 3.4 mph S5.5 kmh S 13.0 mph20.9 kmh 29.86 in1011.2 mb 0.00 in0.0 mm 0.00 in0.0 mm 0.00 in0.0 mm
09:50 AM 87.5°F30.8°C 75.6°F24.2°C 68% 4.0 mph SSE6.4 kmh SSE 14.0 mph22.5 kmh 29.87 in1011.5 mb 0.00 in0.0 mm 0.00 in0.0 mm 0.00 in0.0 mm
09:55 AM 87.1°F30.6°C 75.2°F24.0°C 68% 2.6 mph SSE4.2 kmh SSE 14.0 mph22.5 kmh 29.87 in1011.5 mb 0.00 in0.0 mm 0.00 in0.0 mm 0.00 in0.0 mm
10:00 AM 87.1°F30.6°C 76.1°F24.5°C 70% 2.3 mph S3.7 kmh S 8.0 mph12.9 kmh 29.87 in1011.5 mb 0.00 in0.0 mm 0.00 in0.0 mm 0.00 in0.0 mm
10:05 AM 87.3°F30.7°C 75.4°F24.1°C 68% 2.0 mph SSE3.2 kmh SSE 7.0 mph11.3 kmh 29.87 in1011.5 mb 0.00 in0.0 mm 0.00 in0.0 mm 0.00 in0.0 mm
10:10 AM 87.1°F30.6°C 75.2°F24.0°C 68% 2.4 mph S3.9 kmh S 10.0 mph16.1 kmh 29.88 in1011.9 mb 0.00 in0.0 mm 0.00 in0.0 mm 0.00 in0.0 mm
10:15 AM 87.3°F30.7°C 74.5°F23.6°C 66% 3.0 mph S4.8 kmh S 10.0 mph16.1 kmh 29.87 in1011.5 mb 0.00 in0.0 mm 0.00 in0.0 mm 0.00 in0.0 mm
10:20 AM 87.8°F31.0°C 74.5°F23.6°C 65% 3.0 mph S4.8 kmh S 10.0 mph16.1 kmh 29.88 in1011.9 mb 0.00 in0.0 mm 0.00 in0.0 mm 0.00 in0.0 mm
10:25 AM 88.5°F31.4°C 75.7°F24.3°C 66% 2.9 mph SSW4.7 kmh SSW 12.0 mph19.3 kmh 29.88 in1011.9 mb 0.00 in0.0 mm 0.00 in0.0 mm 0.00 in0.0 mm
10:30 AM 89.5°F31.9°C 76.6°F24.8°C 66% 1.8 mph S2.9 kmh S 12.0 mph19.3 kmh 29.88 in1011.9 mb 0.00 in0.0 mm 0.00 in0.0 mm 0.00 in0.0 mm
10:35 AM 89.6°F32.0°C 75.8°F24.3°C 64% 3.3 mph S5.3 kmh S 9.0 mph14.5 kmh 29.88 in1011.9 mb 0.00 in0.0 mm 0.00 in0.0 mm 0.00 in0.0 mm
10:40 AM 89.9°F32.2°C 76.1°F24.5°C 64% 2.9 mph SSE4.7 kmh SSE 9.0 mph14.5 kmh 29.88 in1011.9 mb 0.00 in0.0 mm 0.00 in0.0 mm 0.00 in0.0 mm
10:45 AM 89.9°F32.2°C 76.5°F24.7°C 65% 2.9 mph SSE4.7 kmh SSE 8.0 mph12.9 kmh 29.88 in1011.9 mb 0.00 in0.0 mm 0.00 in0.0 mm 0.00 in0.0 mm
10:50 AM 90.7°F32.6°C 75.9°F24.4°C 62% 2.3 mph S3.7 kmh S 7.0 mph11.3 kmh 29.88 in1011.9 mb 0.00 in0.0 mm 0.00 in0.0 mm 0.00 in0.0 mm
10:55 AM 90.5°F32.5°C 76.6°F24.8°C 64% 2.5 mph SSE4.0 kmh SSE 7.0 mph11.3 kmh 29.88 in1011.9 mb 0.00 in0.0 mm 0.00 in0.0 mm 0.00 in0.0 mm
11:00 AM 91.1°F32.8°C 75.7°F24.3°C 61% 2.1 mph S3.4 kmh S 8.0 mph12.9 kmh 29.88 in1011.9 mb 0.00 in0.0 mm 0.00 in0.0 mm 0.00 in0.0 mm
11:05 AM 90.8°F32.7°C 75.0°F23.9°C 60% 3.8 mph S6.1 kmh S 11.0 mph17.7 kmh 29.89 in1012.2 mb 0.00 in0.0 mm 0.00 in0.0 mm 0.00 in0.0 mm
11:10 AM 90.0°F32.2°C 74.7°F23.7°C 61% 3.9 mph SSW6.3 kmh SSW 11.0 mph17.7 kmh 29.88 in1011.9 mb 0.00 in0.0 mm 0.00 in0.0 mm 0.00 in0.0 mm
11:15 AM 89.9°F32.2°C 75.6°F24.2°C 63% 1.8 mph S2.9 kmh S 9.0 mph14.5 kmh 29.89 in1012.2 mb 0.00 in0.0 mm 0.00 in0.0 mm 0.00 in0.0 mm
11:20 AM 89.8°F32.1°C 75.0°F23.9°C 62% 3.1 mph SSW5.0 kmh SSW 10.0 mph16.1 kmh 29.88 in1011.9 mb 0.00 in0.0 mm 0.00 in0.0 mm 0.00 in0.0 mm
11:25 AM 90.4°F32.4°C 75.6°F24.2°C 62% 2.7 mph S4.3 kmh S 10.0 mph16.1 kmh 29.88 in1011.9 mb 0.00 in0.0 mm 0.00 in0.0 mm 0.00 in0.0 mm
11:30 AM 91.0°F32.8°C 74.1°F23.4°C 58% 2.8 mph S4.5 kmh S 8.0 mph12.9 kmh 29.89 in1012.2 mb 0.00 in0.0 mm 0.00 in0.0 mm 0.00 in0.0 mm
11:35 AM 91.3°F32.9°C 74.9°F23.8°C 59% 2.3 mph SSW3.7 kmh SSW 7.0 mph11.3 kmh 29.89 in1012.2 mb 0.00 in0.0 mm 0.00 in0.0 mm 0.00 in0.0 mm
11:40 AM 91.2°F32.9°C 75.3°F24.1°C 60% 2.4 mph S3.9 kmh S 6.0 mph9.7 kmh 29.89 in1012.2 mb 0.00 in0.0 mm 0.00 in0.0 mm 0.00 in0.0 mm
11:45 AM 91.4°F33.0°C 75.0°F23.9°C 59% 2.5 mph S4.0 kmh S 6.0 mph9.7 kmh 29.89 in1012.2 mb 0.00 in0.0 mm 0.00 in0.0 mm 0.00 in0.0 mm
11:50 AM 91.9°F33.3°C 73.9°F23.3°C 56% 3.7 mph SSE6.0 kmh SSE 10.0 mph16.1 kmh 29.89 in1012.2 mb 0.00 in0.0 mm 0.00 in0.0 mm 0.00 in0.0 mm
11:55 AM 92.0°F33.3°C 74.5°F23.6°C 57% 3.1 mph SE5.0 kmh SE 10.0 mph16.1 kmh 29.89 in1012.2 mb 0.00 in0.0 mm 0.00 in0.0 mm 0.00 in0.0 mm
12:00 PM 92.1°F33.4°C 74.1°F23.4°C 56% 3.6 mph S5.8 kmh S 8.0 mph12.9 kmh 29.89 in1012.2 mb 0.00 in0.0 mm 0.00 in0.0 mm 0.00 in0.0 mm
12:05 PM 92.3°F33.5°C 73.8°F23.2°C 55% 3.4 mph S5.5 kmh S 10.0 mph16.1 kmh 29.89 in1012.2 mb 0.00 in0.0 mm 0.00 in0.0 mm 0.00 in0.0 mm
12:10 PM 92.0°F33.3°C 74.5°F23.6°C 57% 3.4 mph SSW5.5 kmh SSW 10.0 mph16.1 kmh 29.89 in1012.2 mb 0.00 in0.0 mm 0.00 in0.0 mm 0.00 in0.0 mm
12:15 PM 91.7°F33.2°C 74.8°F23.8°C 58% 3.4 mph SSW5.5 kmh SSW 9.0 mph14.5 kmh 29.89 in1012.2 mb 0.00 in0.0 mm 0.00 in0.0 mm 0.00 in0.0 mm
12:20 PM 91.8°F33.2°C 74.9°F23.8°C 58% 2.2 mph S3.5 kmh S 9.0 mph14.5 kmh 29.89 in1012.2 mb 0.00 in0.0 mm 0.00 in0.0 mm 0.00 in0.0 mm
12:25 PM 91.1°F32.8°C 73.7°F23.2°C 57% 2.1 mph S3.4 kmh S 8.0 mph12.9 kmh 29.89 in1012.2 mb 0.00 in0.0 mm 0.00 in0.0 mm 0.00 in0.0 mm
12:30 PM 91.5°F33.1°C 74.1°F23.4°C 57% 3.6 mph S5.8 kmh S 11.0 mph17.7 kmh 29.89 in1012.2 mb 0.00 in0.0 mm 0.00 in0.0 mm 0.00 in0.0 mm
12:35 PM 91.6°F33.1°C 73.6°F23.1°C 56% 4.6 mph S7.4 kmh S 12.0 mph19.3 kmh 29.89 in1012.2 mb 0.00 in0.0 mm 0.00 in0.0 mm 0.00 in0.0 mm
12:40 PM 92.1°F33.4°C 74.6°F23.7°C 57% 3.6 mph S5.8 kmh S 12.0 mph19.3 kmh 29.89 in1012.2 mb 0.00 in0.0 mm 0.00 in0.0 mm 0.00 in0.0 mm
12:45 PM 92.2°F33.4°C 73.7°F23.2°C 55% 4.5 mph SSW7.2 kmh SSW 13.0 mph20.9 kmh 29.89 in1012.2 mb 0.00 in0.0 mm 0.00 in0.0 mm 0.00 in0.0 mm
12:50 PM 91.8°F33.2°C 73.8°F23.2°C 56% 3.2 mph S5.1 kmh S 13.0 mph20.9 kmh 29.90 in1012.5 mb 0.00 in0.0 mm 0.00 in0.0 mm 0.00 in0.0 mm
12:55 PM 91.8°F33.2°C 73.3°F22.9°C 55% 2.5 mph SW4.0 kmh SW 9.0 mph14.5 kmh 29.89 in1012.2 mb 0.00 in0.0 mm 0.00 in0.0 mm 0.00 in0.0 mm
01:00 PM 92.0°F33.3°C 75.1°F23.9°C 58% 1.6 mph S2.6 kmh S 9.0 mph14.5 kmh 29.89 in1012.2 mb 0.00 in0.0 mm 0.00 in0.0 mm 0.00 in0.0 mm
01:05 PM 91.5°F33.1°C 73.5°F23.1°C 56% 2.3 mph S3.7 kmh S 7.0 mph11.3 kmh 29.89 in1012.2 mb 0.00 in0.0 mm 0.00 in0.0 mm 0.00 in0.0 mm
01:10 PM 91.2°F32.9°C 73.8°F23.2°C 57% 2.6 mph SE4.2 kmh SE 7.0 mph11.3 kmh 29.89 in1012.2 mb 0.00 in0.0 mm 0.00 in0.0 mm 0.00 in0.0 mm
01:15 PM 91.9°F33.3°C 75.5°F24.2°C 59% 3.2 mph SSW5.1 kmh SSW 10.0 mph16.1 kmh 29.89 in1012.2 mb 0.00 in0.0 mm 0.00 in0.0 mm 0.00 in0.0 mm
01:20 PM 92.7°F33.7°C 74.7°F23.7°C 56% 3.8 mph SW6.1 kmh SW 11.0 mph17.7 kmh 29.89 in1012.2 mb 0.00 in0.0 mm 0.00 in0.0 mm 0.00 in0.0 mm
01:25 PM 92.6°F33.7°C 74.0°F23.3°C 55% 2.5 mph SSW4.0 kmh SSW 11.0 mph17.7 kmh 29.89 in1012.2 mb 0.00 in0.0 mm 0.00 in0.0 mm 0.00 in0.0 mm
01:30 PM 91.7°F33.2°C 74.3°F23.5°C 57% 2.6 mph S4.2 kmh S 8.0 mph12.9 kmh 29.89 in1012.2 mb 0.00 in0.0 mm 0.00 in0.0 mm 0.00 in0.0 mm
01:35 PM 92.3°F33.5°C 75.3°F24.1°C 58% 2.6 mph S4.2 kmh S 8.0 mph12.9 kmh 29.88 in1011.9 mb 0.00 in0.0 mm 0.00 in0.0 mm 0.00 in0.0 mm
01:40 PM 92.9°F33.8°C 72.6°F22.6°C 52% 3.1 mph S5.0 kmh S 15.0 mph24.1 kmh 29.88 in1011.9 mb 0.00 in0.0 mm 0.00 in0.0 mm 0.00 in0.0 mm
01:45 PM 93.0°F33.9°C 73.9°F23.3°C 54% 3.2 mph SSW5.1 kmh SSW 15.0 mph24.1 kmh 29.88 in1011.9 mb 0.00 in0.0 mm 0.00 in0.0 mm 0.00 in0.0 mm
01:50 PM 92.8°F33.8°C 74.2°F23.4°C 55% 2.6 mph S4.2 kmh S 9.0 mph14.5 kmh 29.88 in1011.9 mb 0.00 in0.0 mm 0.00 in0.0 mm 0.00 in0.0 mm
01:55 PM 92.4°F33.6°C 74.9°F23.8°C 57% 3.5 mph S5.6 kmh S 7.0 mph11.3 kmh 29.88 in1011.9 mb 0.00 in0.0 mm 0.00 in0.0 mm 0.00 in0.0 mm
02:00 PM 92.4°F33.6°C 75.4°F24.1°C 58% 2.0 mph SSE3.2 kmh SSE 7.0 mph11.3 kmh 29.88 in1011.9 mb 0.00 in0.0 mm 0.00 in0.0 mm 0.00 in0.0 mm
02:05 PM 93.2°F34.0°C 76.2°F24.6°C 58% 2.8 mph S4.5 kmh S 8.0 mph12.9 kmh 29.88 in1011.9 mb 0.00 in0.0 mm 0.00 in0.0 mm 0.00 in0.0 mm
02:10 PM 93.1°F33.9°C 74.5°F23.6°C 55% 2.8 mph S4.5 kmh S 9.0 mph14.5 kmh 29.88 in1011.9 mb 0.00 in0.0 mm 0.00 in0.0 mm 0.00 in0.0 mm
02:15 PM 93.5°F34.2°C 75.4°F24.1°C 56% 2.5 mph S4.0 kmh S 9.0 mph14.5 kmh 29.88 in1011.9 mb 0.00 in0.0 mm 0.00 in0.0 mm 0.00 in0.0 mm
02:20 PM 92.7°F33.7°C 74.7°F23.7°C 56% 2.1 mph SE3.4 kmh SE 8.0 mph12.9 kmh 29.88 in1011.9 mb 0.00 in0.0 mm 0.00 in0.0 mm 0.00 in0.0 mm
02:25 PM 91.9°F33.3°C 73.9°F23.3°C 56% 2.6 mph SE4.2 kmh SE 7.0 mph11.3 kmh 29.88 in1011.9 mb 0.00 in0.0 mm 0.00 in0.0 mm 0.00 in0.0 mm
02:30 PM 91.3°F32.9°C 73.4°F23.0°C 56% 3.0 mph SSE4.8 kmh SSE 7.0 mph11.3 kmh 29.88 in1011.9 mb 0.00 in0.0 mm 0.00 in0.0 mm 0.00 in0.0 mm
02:35 PM 91.0°F32.8°C 73.6°F23.1°C 57% 3.0 mph S4.8 kmh S 10.0 mph16.1 kmh 29.88 in1011.9 mb 0.00 in0.0 mm 0.00 in0.0 mm 0.00 in0.0 mm
02:40 PM 91.0°F32.8°C 73.1°F22.8°C 56% 2.4 mph S3.9 kmh S 10.0 mph16.1 kmh 29.88 in1011.9 mb 0.00 in0.0 mm 0.00 in0.0 mm 0.00 in0.0 mm
02:45 PM 90.6°F32.6°C 73.2°F22.9°C 57% 3.6 mph SE5.8 kmh SE 9.0 mph14.5 kmh 29.88 in1011.9 mb 0.00 in0.0 mm 0.00 in0.0 mm 0.00 in0.0 mm
02:50 PM 90.5°F32.5°C 72.6°F22.6°C 56% 2.2 mph SSE3.5 kmh SSE 9.0 mph14.5 kmh 29.88 in1011.9 mb 0.00 in0.0 mm 0.00 in0.0 mm 0.00 in0.0 mm
02:55 PM 90.4°F32.4°C 72.0°F22.2°C 55% 2.3 mph S3.7 kmh S 6.0 mph9.7 kmh 29.88 in1011.9 mb 0.00 in0.0 mm 0.00 in0.0 mm 0.00 in0.0 mm
03:00 PM 90.1°F32.3°C 72.2°F22.3°C 56% 3.4 mph SSE5.5 kmh SSE 9.0 mph14.5 kmh 29.88 in1011.9 mb 0.00 in0.0 mm 0.00 in0.0 mm 0.00 in0.0 mm
03:05 PM 90.0°F32.2°C 72.7°F22.6°C 57% 2.9 mph SSE4.7 kmh SSE 9.0 mph14.5 kmh 29.87 in1011.5 mb 0.00 in0.0 mm 0.00 in0.0 mm 0.00 in0.0 mm
03:10 PM 89.9°F32.2°C 73.1°F22.8°C 58% 2.7 mph S4.3 kmh S 10.0 mph16.1 kmh 29.87 in1011.5 mb 0.00 in0.0 mm 0.00 in0.0 mm 0.00 in0.0 mm
03:15 PM 89.8°F32.1°C 73.0°F22.8°C 58% 3.1 mph S5.0 kmh S 10.0 mph16.1 kmh 29.88 in1011.9 mb 0.00 in0.0 mm 0.00 in0.0 mm 0.00 in0.0 mm
03:20 PM 89.7°F32.1°C 73.4°F23.0°C 59% 2.4 mph S3.9 kmh S 10.0 mph16.1 kmh 29.88 in1011.9 mb 0.00 in0.0 mm 0.00 in0.0 mm 0.00 in0.0 mm
03:25 PM 89.3°F31.8°C 73.1°F22.8°C 59% 3.5 mph S5.6 kmh S 10.0 mph16.1 kmh 29.88 in1011.9 mb 0.00 in0.0 mm 0.00 in0.0 mm 0.00 in0.0 mm
03:30 PM 89.3°F31.8°C 73.6°F23.1°C 60% 2.5 mph SSE4.0 kmh SSE 9.0 mph14.5 kmh 29.88 in1011.9 mb 0.00 in0.0 mm 0.00 in0.0 mm 0.00 in0.0 mm
03:35 PM 88.9°F31.6°C 73.2°F22.9°C 60% 3.0 mph SSW4.8 kmh SSW 8.0 mph12.9 kmh 29.88 in1011.9 mb 0.00 in0.0 mm 0.00 in0.0 mm 0.00 in0.0 mm
03:40 PM 88.6°F31.4°C 72.9°F22.7°C 60% 2.8 mph S4.5 kmh S 7.0 mph11.3 kmh 29.88 in1011.9 mb 0.00 in0.0 mm 0.00 in0.0 mm 0.00 in0.0 mm
03:45 PM 88.3°F31.3°C 72.6°F22.6°C 60% 2.8 mph S4.5 kmh S 9.0 mph14.5 kmh 29.89 in1012.2 mb 0.00 in0.0 mm 0.00 in0.0 mm 0.00 in0.0 mm
03:50 PM 88.3°F31.3°C 73.6°F23.1°C 62% 1.8 mph S2.9 kmh S 9.0 mph14.5 kmh 29.89 in1012.2 mb 0.00 in0.0 mm 0.00 in0.0 mm 0.00 in0.0 mm
03:55 PM 88.1°F31.2°C 72.9°F22.7°C 61% 1.4 mph SSE2.3 kmh SSE 7.0 mph11.3 kmh 29.89 in1012.2 mb 0.00 in0.0 mm 0.00 in0.0 mm 0.00 in0.0 mm
04:00 PM 87.9°F31.1°C 72.7°F22.6°C 61% 1.6 mph S2.6 kmh S 6.0 mph9.7 kmh 29.89 in1012.2 mb 0.00 in0.0 mm 0.00 in0.0 mm 0.00 in0.0 mm
04:05 PM 87.4°F30.8°C 72.7°F22.6°C 62% 2.1 mph SSE3.4 kmh SSE 7.0 mph11.3 kmh 29.89 in1012.2 mb 0.00 in0.0 mm 0.00 in0.0 mm 0.00 in0.0 mm
04:10 PM 87.0°F30.6°C 72.4°F22.4°C 62% 2.0 mph S3.2 kmh S 7.0 mph11.3 kmh 29.88 in1011.9 mb 0.00 in0.0 mm 0.00 in0.0 mm 0.00 in0.0 mm
04:15 PM 86.7°F30.4°C 71.6°F22.0°C 61% 2.6 mph SSW4.2 kmh SSW 10.0 mph16.1 kmh 29.89 in1012.2 mb 0.00 in0.0 mm 0.00 in0.0 mm 0.00 in0.0 mm
04:20 PM 86.5°F30.3°C 71.9°F22.2°C 62% 2.1 mph S3.4 kmh S 10.0 mph16.1 kmh 29.88 in1011.9 mb 0.00 in0.0 mm 0.00 in0.0 mm 0.00 in0.0 mm
04:25 PM 86.4°F30.2°C 72.3°F22.4°C 63% 1.4 mph S2.3 kmh S 7.0 mph11.3 kmh 29.88 in1011.9 mb 0.00 in0.0 mm 0.00 in0.0 mm 0.00 in0.0 mm
04:30 PM 86.2°F30.1°C 72.6°F22.6°C 64% 1.5 mph SSE2.4 kmh SSE 4.0 mph6.4 kmh 29.88 in1011.9 mb 0.00 in0.0 mm 0.00 in0.0 mm 0.00 in0.0 mm
04:35 PM 86.3°F30.2°C 72.7°F22.6°C 64% 1.4 mph S2.3 kmh S 4.0 mph6.4 kmh 29.87 in1011.5 mb 0.00 in0.0 mm 0.00 in0.0 mm 0.00 in0.0 mm
04:40 PM 86.5°F30.3°C 72.4°F22.4°C 63% 2.0 mph SW3.2 kmh SW 8.0 mph12.9 kmh 29.87 in1011.5 mb 0.00 in0.0 mm 0.00 in0.0 mm 0.00 in0.0 mm
04:45 PM 86.8°F30.4°C 73.1°F22.8°C 64% 1.0 mph SE1.6 kmh SE 8.0 mph12.9 kmh 29.86 in1011.2 mb 0.00 in0.0 mm 0.00 in0.0 mm 0.00 in0.0 mm
04:50 PM 88.3°F31.3°C 74.5°F23.6°C 64% 1.2 mph S1.9 kmh S 5.0 mph8.0 kmh 29.87 in1011.5 mb 0.00 in0.0 mm 0.00 in0.0 mm 0.00 in0.0 mm
04:55 PM 89.0°F31.7°C 74.3°F23.5°C 62% 2.4 mph SE3.9 kmh SE 8.0 mph12.9 kmh 29.87 in1011.5 mb 0.00 in0.0 mm 0.00 in0.0 mm 0.00 in0.0 mm
05:00 PM 88.4°F31.3°C 74.6°F23.7°C 64% 2.2 mph SE3.5 kmh SE 8.0 mph12.9 kmh 29.86 in1011.2 mb 0.00 in0.0 mm 0.00 in0.0 mm 0.00 in0.0 mm
05:05 PM 88.1°F31.2°C 73.9°F23.3°C 63% 1.5 mph SE2.4 kmh SE 7.0 mph11.3 kmh 29.86 in1011.2 mb 0.00 in0.0 mm 0.00 in0.0 mm 0.00 in0.0 mm
05:10 PM 87.9°F31.1°C 74.2°F23.4°C 64% 1.1 mph SE1.8 kmh SE 4.0 mph6.4 kmh 29.86 in1011.2 mb 0.00 in0.0 mm 0.00 in0.0 mm 0.00 in0.0 mm
05:15 PM 87.5°F30.8°C 73.3°F22.9°C 63% 2.3 mph SE3.7 kmh SE 12.0 mph19.3 kmh 29.86 in1011.2 mb 0.00 in0.0 mm 0.00 in0.0 mm 0.00 in0.0 mm
05:20 PM 87.0°F30.6°C 72.8°F22.7°C 63% 2.3 mph SE3.7 kmh SE 12.0 mph19.3 kmh 29.86 in1011.2 mb 0.00 in0.0 mm 0.00 in0.0 mm 0.00 in0.0 mm
05:25 PM 86.6°F30.3°C 73.4°F23.0°C 65% 3.2 mph SE5.1 kmh SE 9.0 mph14.5 kmh 29.86 in1011.2 mb 0.00 in0.0 mm 0.00 in0.0 mm 0.00 in0.0 mm
05:30 PM 86.2°F30.1°C 73.0°F22.8°C 65% 4.3 mph SE6.9 kmh SE 12.0 mph19.3 kmh 29.86 in1011.2 mb 0.00 in0.0 mm 0.00 in0.0 mm 0.00 in0.0 mm
05:35 PM 86.0°F30.0°C 72.8°F22.7°C 65% 2.4 mph SE3.9 kmh SE 12.0 mph19.3 kmh 29.86 in1011.2 mb 0.00 in0.0 mm 0.00 in0.0 mm 0.00 in0.0 mm
05:40 PM 86.0°F30.0°C 73.3°F22.9°C 66% 1.5 mph SE2.4 kmh SE 8.0 mph12.9 kmh 29.86 in1011.2 mb 0.00 in0.0 mm 0.00 in0.0 mm 0.00 in0.0 mm
05:45 PM 86.0°F30.0°C 73.3°F22.9°C 66% 1.2 mph SE1.9 kmh SE 7.0 mph11.3 kmh 29.86 in1011.2 mb 0.00 in0.0 mm 0.00 in0.0 mm 0.00 in0.0 mm
05:50 PM 85.9°F29.9°C 73.2°F22.9°C 66% 2.6 mph SE4.2 kmh SE 8.0 mph12.9 kmh 29.86 in1011.2 mb 0.00 in0.0 mm 0.00 in0.0 mm 0.00 in0.0 mm
05:55 PM 86.1°F30.1°C 73.4°F23.0°C 66% 2.2 mph SE3.5 kmh SE 8.0 mph12.9 kmh 29.85 in1010.8 mb 0.00 in0.0 mm 0.00 in0.0 mm 0.00 in0.0 mm
06:00 PM 86.4°F30.2°C 73.7°F23.2°C 66% 1.2 mph SSE1.9 kmh SSE 5.0 mph8.0 kmh 29.85 in1010.8 mb 0.00 in0.0 mm 0.00 in0.0 mm 0.00 in0.0 mm
06:05 PM 86.6°F30.3°C 73.9°F23.3°C 66% 1.8 mph SE2.9 kmh SE 5.0 mph8.0 kmh 29.84 in1010.5 mb 0.00 in0.0 mm 0.00 in0.0 mm 0.00 in0.0 mm
06:10 PM 86.9°F30.5°C 74.1°F23.4°C 66% 1.2 mph SE1.9 kmh SE 5.0 mph8.0 kmh 29.84 in1010.5 mb 0.00 in0.0 mm 0.00 in0.0 mm 0.00 in0.0 mm
06:15 PM 87.4°F30.8°C 74.6°F23.7°C 66% 2.0 mph SE3.2 kmh SE 7.0 mph11.3 kmh 29.84 in1010.5 mb 0.00 in0.0 mm 0.00 in0.0 mm 0.00 in0.0 mm
06:20 PM 87.5°F30.8°C 73.8°F23.2°C 64% 1.9 mph SE3.1 kmh SE 7.0 mph11.3 kmh 29.84 in1010.5 mb 0.00 in0.0 mm 0.00 in0.0 mm 0.00 in0.0 mm
06:25 PM 87.3°F30.7°C 73.6°F23.1°C 64% 1.8 mph SE2.9 kmh SE 5.0 mph8.0 kmh 29.84 in1010.5 mb 0.00 in0.0 mm 0.00 in0.0 mm 0.00 in0.0 mm
06:30 PM 87.7°F30.9°C 74.0°F23.3°C 64% 2.4 mph SE3.9 kmh SE 9.0 mph14.5 kmh 29.84 in1010.5 mb 0.00 in0.0 mm 0.00 in0.0 mm 0.00 in0.0 mm
06:35 PM 87.5°F30.8°C 73.8°F23.2°C 64% 1.9 mph SE3.1 kmh SE 9.0 mph14.5 kmh 29.84 in1010.5 mb 0.00 in0.0 mm 0.00 in0.0 mm 0.00 in0.0 mm
06:40 PM 87.1°F30.6°C 73.4°F23.0°C 64% 1.5 mph SE2.4 kmh SE 6.0 mph9.7 kmh 29.84 in1010.5 mb 0.00 in0.0 mm 0.00 in0.0 mm 0.00 in0.0 mm
06:45 PM 86.9°F30.5°C 73.7°F23.2°C 65% 1.8 mph SE2.9 kmh SE 7.0 mph11.3 kmh 29.83 in1010.2 mb 0.00 in0.0 mm 0.00 in0.0 mm 0.00 in0.0 mm
06:50 PM 86.8°F30.4°C 73.6°F23.1°C 65% 2.0 mph SE3.2 kmh SE 7.0 mph11.3 kmh 29.83 in1010.2 mb 0.00 in0.0 mm 0.00 in0.0 mm 0.00 in0.0 mm
06:55 PM 86.7°F30.4°C 73.5°F23.1°C 65% 2.5 mph SE4.0 kmh SE 6.0 mph9.7 kmh 29.83 in1010.2 mb 0.00 in0.0 mm 0.00 in0.0 mm 0.00 in0.0 mm
07:00 PM 86.8°F30.4°C 74.0°F23.3°C 66% 2.0 mph SE3.2 kmh SE 6.0 mph9.7 kmh 29.83 in1010.2 mb 0.00 in0.0 mm 0.00 in0.0 mm 0.00 in0.0 mm
07:05 PM 87.9°F31.1°C 74.6°F23.7°C 65% 1.2 mph SSE1.9 kmh SSE 5.0 mph8.0 kmh 29.83 in1010.2 mb 0.00 in0.0 mm 0.00 in0.0 mm 0.00 in0.0 mm
07:10 PM 88.5°F31.4°C 74.7°F23.7°C 64% 2.1 mph SE3.4 kmh SE 7.0 mph11.3 kmh 29.83 in1010.2 mb 0.00 in0.0 mm 0.00 in0.0 mm 0.00 in0.0 mm
07:15 PM 88.8°F31.6°C 74.5°F23.6°C 63% 1.2 mph SE1.9 kmh SE 8.0 mph12.9 kmh 29.83 in1010.2 mb 0.00 in0.0 mm 0.00 in0.0 mm 0.00 in0.0 mm
07:20 PM 88.7°F31.5°C 74.5°F23.6°C 63% 2.2 mph SE3.5 kmh SE 8.0 mph12.9 kmh 29.83 in1010.2 mb 0.00 in0.0 mm 0.00 in0.0 mm 0.00 in0.0 mm
07:25 PM 88.5°F31.4°C 74.7°F23.7°C 64% 1.9 mph ESE3.1 kmh ESE 6.0 mph9.7 kmh 29.83 in1010.2 mb 0.00 in0.0 mm 0.00 in0.0 mm 0.00 in0.0 mm
07:30 PM 87.6°F30.9°C 74.3°F23.5°C 65% 3.1 mph SE5.0 kmh SE 9.0 mph14.5 kmh 29.83 in1010.2 mb 0.00 in0.0 mm 0.00 in0.0 mm 0.00 in0.0 mm
07:35 PM 87.4°F30.8°C 74.2°F23.4°C 65% 2.5 mph SE4.0 kmh SE 9.0 mph14.5 kmh 29.83 in1010.2 mb 0.00 in0.0 mm 0.00 in0.0 mm 0.00 in0.0 mm
07:40 PM 87.3°F30.7°C 74.1°F23.4°C 65% 2.9 mph SE4.7 kmh SE 9.0 mph14.5 kmh 29.83 in1010.2 mb 0.00 in0.0 mm 0.00 in0.0 mm 0.00 in0.0 mm
07:45 PM 87.2°F30.7°C 74.0°F23.3°C 65% 3.1 mph SE5.0 kmh SE 9.0 mph14.5 kmh 29.83 in1010.2 mb 0.00 in0.0 mm 0.00 in0.0 mm 0.00 in0.0 mm
07:50 PM 87.1°F30.6°C 73.9°F23.3°C 65% 2.9 mph SE4.7 kmh SE 9.0 mph14.5 kmh 29.83 in1010.2 mb 0.00 in0.0 mm 0.00 in0.0 mm 0.00 in0.0 mm
07:55 PM 87.0°F30.6°C 73.8°F23.2°C 65% 2.0 mph SE3.2 kmh SE 9.0 mph14.5 kmh 29.83 in1010.2 mb 0.00 in0.0 mm 0.00 in0.0 mm 0.00 in0.0 mm
08:00 PM 86.7°F30.4°C 73.5°F23.1°C 65% 1.9 mph SE3.1 kmh SE 10.0 mph16.1 kmh 29.83 in1010.2 mb 0.00 in0.0 mm 0.00 in0.0 mm 0.00 in0.0 mm
08:05 PM 86.4°F30.2°C 73.2°F22.9°C 65% 2.4 mph SE3.9 kmh SE 10.0 mph16.1 kmh 29.83 in1010.2 mb 0.00 in0.0 mm 0.00 in0.0 mm 0.00 in0.0 mm
08:10 PM 86.1°F30.1°C 73.4°F23.0°C 66% 1.3 mph SE2.1 kmh SE 10.0 mph16.1 kmh 29.83 in1010.2 mb 0.00 in0.0 mm 0.00 in0.0 mm 0.00 in0.0 mm
08:15 PM 86.0°F30.0°C 73.3°F22.9°C 66% 1.4 mph SE2.3 kmh SE 5.0 mph8.0 kmh 29.83 in1010.2 mb 0.00 in0.0 mm 0.00 in0.0 mm 0.00 in0.0 mm
08:20 PM 85.7°F29.8°C 73.5°F23.1°C 67% 1.5 mph SE2.4 kmh SE 4.0 mph6.4 kmh 29.83 in1010.2 mb 0.00 in0.0 mm 0.00 in0.0 mm 0.00 in0.0 mm
08:25 PM 85.5°F29.7°C 73.3°F22.9°C 67% 1.8 mph SE2.9 kmh SE 5.0 mph8.0 kmh 29.83 in1010.2 mb 0.00 in0.0 mm 0.00 in0.0 mm 0.00 in0.0 mm
08:30 PM 85.2°F29.6°C 73.0°F22.8°C 67% 2.3 mph SE3.7 kmh SE 7.0 mph11.3 kmh 29.83 in1010.2 mb 0.00 in0.0 mm 0.00 in0.0 mm 0.00 in0.0 mm
08:35 PM 85.0°F29.4°C 73.2°F22.9°C 68% 1.3 mph SE2.1 kmh SE 7.0 mph11.3 kmh 29.82 in1009.8 mb 0.00 in0.0 mm 0.00 in0.0 mm 0.00 in0.0 mm
08:40 PM 84.8°F29.3°C 73.5°F23.1°C 69% 1.3 mph SE2.1 kmh SE 5.0 mph8.0 kmh 29.82 in1009.8 mb 0.00 in0.0 mm 0.00 in0.0 mm 0.00 in0.0 mm
08:45 PM 84.6°F29.2°C 73.3°F22.9°C 69% 1.2 mph ESE1.9 kmh ESE 4.0 mph6.4 kmh 29.83 in1010.2 mb 0.00 in0.0 mm 0.00 in0.0 mm 0.00 in0.0 mm
08:50 PM 84.4°F29.1°C 73.1°F22.8°C 69% 1.5 mph SE2.4 kmh SE 3.0 mph4.8 kmh 29.83 in1010.2 mb 0.00 in0.0 mm 0.00 in0.0 mm 0.00 in0.0 mm
08:55 PM 84.3°F29.1°C 73.0°F22.8°C 69% 0.9 mph ESE1.4 kmh ESE 3.0 mph4.8 kmh 29.83 in1010.2 mb 0.00 in0.0 mm 0.00 in0.0 mm 0.00 in0.0 mm
09:00 PM 84.2°F29.0°C 73.3°F22.9°C 70% 1.3 mph SE2.1 kmh SE 6.0 mph9.7 kmh 29.82 in1009.8 mb 0.00 in0.0 mm 0.00 in0.0 mm 0.00 in0.0 mm
09:05 PM 84.1°F28.9°C 73.2°F22.9°C 70% 0.7 mph SE1.1 kmh SE 6.0 mph9.7 kmh 29.83 in1010.2 mb 0.00 in0.0 mm 0.00 in0.0 mm 0.00 in0.0 mm
09:10 PM 83.9°F28.8°C 73.0°F22.8°C 70% 1.1 mph SE1.8 kmh SE 4.0 mph6.4 kmh 29.83 in1010.2 mb 0.00 in0.0 mm 0.00 in0.0 mm 0.00 in0.0 mm
09:15 PM 83.9°F28.8°C 73.5°F23.1°C 71% 1.6 mph SE2.6 kmh SE 5.0 mph8.0 kmh 29.83 in1010.2 mb 0.00 in0.0 mm 0.00 in0.0 mm 0.00 in0.0 mm
09:20 PM 83.8°F28.8°C 73.4°F23.0°C 71% 2.0 mph ESE3.2 kmh ESE 6.0 mph9.7 kmh 29.83 in1010.2 mb 0.00 in0.0 mm 0.00 in0.0 mm 0.00 in0.0 mm
09:25 PM 83.7°F28.7°C 73.3°F22.9°C 71% 2.2 mph SE3.5 kmh SE 9.0 mph14.5 kmh 29.83 in1010.2 mb 0.00 in0.0 mm 0.00 in0.0 mm 0.00 in0.0 mm
09:30 PM 83.7°F28.7°C 73.3°F22.9°C 71% 1.8 mph SE2.9 kmh SE 9.0 mph14.5 kmh 29.83 in1010.2 mb 0.00 in0.0 mm 0.00 in0.0 mm 0.00 in0.0 mm
09:35 PM 83.7°F28.7°C 73.3°F22.9°C 71% 1.5 mph SE2.4 kmh SE 6.0 mph9.7 kmh 29.83 in1010.2 mb 0.00 in0.0 mm 0.00 in0.0 mm 0.00 in0.0 mm
09:40 PM 83.6°F28.7°C 73.2°F22.9°C 71% 2.1 mph SE3.4 kmh SE 7.0 mph11.3 kmh 29.84 in1010.5 mb 0.00 in0.0 mm 0.00 in0.0 mm 0.00 in0.0 mm
09:45 PM 83.6°F28.7°C 73.2°F22.9°C 71% 1.7 mph SE2.7 kmh SE 7.0 mph11.3 kmh 29.84 in1010.5 mb 0.00 in0.0 mm 0.00 in0.0 mm 0.00 in0.0 mm
09:50 PM 83.5°F28.6°C 73.5°F23.1°C 72% 1.0 mph SE1.6 kmh SE 7.0 mph11.3 kmh 29.84 in1010.5 mb 0.00 in0.0 mm 0.00 in0.0 mm 0.00 in0.0 mm
09:55 PM 83.4°F28.6°C 73.0°F22.8°C 71% 1.7 mph SSE2.7 kmh SSE 5.0 mph8.0 kmh 29.84 in1010.5 mb 0.00 in0.0 mm 0.00 in0.0 mm 0.00 in0.0 mm
10:00 PM 83.5°F28.6°C 72.7°F22.6°C 70% 1.7 mph SSE2.7 kmh SSE 4.0 mph6.4 kmh 29.84 in1010.5 mb 0.00 in0.0 mm 0.00 in0.0 mm 0.00 in0.0 mm
10:05 PM 83.6°F28.7°C 72.8°F22.7°C 70% 1.3 mph SE2.1 kmh SE 4.0 mph6.4 kmh 29.84 in1010.5 mb 0.00 in0.0 mm 0.00 in0.0 mm 0.00 in0.0 mm
10:10 PM 83.5°F28.6°C 72.7°F22.6°C 70% 2.2 mph SE3.5 kmh SE 7.0 mph11.3 kmh 29.84 in1010.5 mb 0.00 in0.0 mm 0.00 in0.0 mm 0.00 in0.0 mm
10:15 PM 83.4°F28.6°C 72.6°F22.6°C 70% 1.8 mph SE2.9 kmh SE 7.0 mph11.3 kmh 29.84 in1010.5 mb 0.00 in0.0 mm 0.00 in0.0 mm 0.00 in0.0 mm
10:20 PM 83.3°F28.5°C 72.5°F22.5°C 70% 1.6 mph ESE2.6 kmh ESE 7.0 mph11.3 kmh 29.84 in1010.5 mb 0.00 in0.0 mm 0.00 in0.0 mm 0.00 in0.0 mm
10:25 PM 83.1°F28.4°C 72.7°F22.6°C 71% 2.2 mph SE3.5 kmh SE 8.0 mph12.9 kmh 29.84 in1010.5 mb 0.00 in0.0 mm 0.00 in0.0 mm 0.00 in0.0 mm
10:30 PM 83.1°F28.4°C 72.3°F22.4°C 70% 3.7 mph SE6.0 kmh SE 10.0 mph16.1 kmh 29.84 in1010.5 mb 0.00 in0.0 mm 0.00 in0.0 mm 0.00 in0.0 mm
10:35 PM 82.9°F28.3°C 72.5°F22.5°C 71% 2.0 mph SE3.2 kmh SE 10.0 mph16.1 kmh 29.84 in1010.5 mb 0.00 in0.0 mm 0.00 in0.0 mm 0.00 in0.0 mm
10:40 PM 82.8°F28.2°C 72.4°F22.4°C 71% 1.4 mph SE2.3 kmh SE 8.0 mph12.9 kmh 29.84 in1010.5 mb 0.00 in0.0 mm 0.00 in0.0 mm 0.00 in0.0 mm
10:45 PM 82.6°F28.1°C 72.6°F22.6°C 72% 3.1 mph SE5.0 kmh SE 8.0 mph12.9 kmh 29.84 in1010.5 mb 0.00 in0.0 mm 0.00 in0.0 mm 0.00 in0.0 mm
10:50 PM 82.5°F28.1°C 72.9°F22.7°C 73% 2.7 mph SE4.3 kmh SE 8.0 mph12.9 kmh 29.84 in1010.5 mb 0.00 in0.0 mm 0.00 in0.0 mm 0.00 in0.0 mm
10:55 PM 82.5°F28.1°C 73.4°F23.0°C 74% 2.9 mph SE4.7 kmh SE 11.0 mph17.7 kmh 29.85 in1010.8 mb 0.00 in0.0 mm 0.00 in0.0 mm 0.00 in0.0 mm
11:00 PM 82.4°F28.0°C 73.3°F22.9°C 74% 3.1 mph SE5.0 kmh SE 11.0 mph17.7 kmh 29.85 in1010.8 mb 0.00 in0.0 mm 0.00 in0.0 mm 0.00 in0.0 mm
11:05 PM 82.5°F28.1°C 73.4°F23.0°C 74% 2.6 mph SE4.2 kmh SE 10.0 mph16.1 kmh 29.85 in1010.8 mb 0.00 in0.0 mm 0.00 in0.0 mm 0.00 in0.0 mm
11:10 PM 82.4°F28.0°C 73.7°F23.2°C 75% 2.7 mph SE4.3 kmh SE 9.0 mph14.5 kmh 29.85 in1010.8 mb 0.00 in0.0 mm 0.00 in0.0 mm 0.00 in0.0 mm
11:15 PM 82.3°F27.9°C 73.6°F23.1°C 75% 1.9 mph SE3.1 kmh SE 9.0 mph14.5 kmh 29.85 in1010.8 mb 0.00 in0.0 mm 0.00 in0.0 mm 0.00 in0.0 mm
11:20 PM 82.2°F27.9°C 73.5°F23.1°C 75% 2.2 mph SE3.5 kmh SE 10.0 mph16.1 kmh 29.85 in1010.8 mb 0.00 in0.0 mm 0.00 in0.0 mm 0.00 in0.0 mm
11:25 PM 82.0°F27.8°C 73.3°F22.9°C 75% 2.6 mph SE4.2 kmh SE 10.0 mph16.1 kmh 29.85 in1010.8 mb 0.00 in0.0 mm 0.00 in0.0 mm 0.00 in0.0 mm
11:30 PM 82.0°F27.8°C 73.7°F23.2°C 76% 1.5 mph SE2.4 kmh SE 6.0 mph9.7 kmh 29.85 in1010.8 mb 0.00 in0.0 mm 0.00 in0.0 mm 0.00 in0.0 mm
11:35 PM 81.8°F27.7°C 73.5°F23.1°C 76% 1.9 mph SE3.1 kmh SE 10.0 mph16.1 kmh 29.85 in1010.8 mb 0.00 in0.0 mm 0.00 in0.0 mm 0.00 in0.0 mm
11:40 PM 81.7°F27.6°C 73.4°F23.0°C 76% 2.1 mph SE3.4 kmh SE 10.0 mph16.1 kmh 29.85 in1010.8 mb 0.00 in0.0 mm 0.00 in0.0 mm 0.00 in0.0 mm
11:45 PM 81.7°F27.6°C 73.4°F23.0°C 76% 2.9 mph SE4.7 kmh SE 8.0 mph12.9 kmh 29.85 in1010.8 mb 0.00 in0.0 mm 0.00 in0.0 mm 0.00 in0.0 mm
11:50 PM 81.7°F27.6°C 73.4°F23.0°C 76% 2.4 mph SE3.9 kmh SE 8.0 mph12.9 kmh 29.85 in1010.8 mb 0.00 in0.0 mm 0.00 in0.0 mm 0.00 in0.0 mm
11:55 PM 81.6°F27.6°C 73.3°F22.9°C 76% 2.2 mph SE3.5 kmh SE 9.0 mph14.5 kmh 29.85 in1010.8 mb 0.00 in0.0 mm 0.00 in0.0 mm 0.00 in0.0 mm